Time;durP1;ratioP1;P1;durP2;ratioP2;P2;SDS_P1;SDS_P2;PMS_P1;PMS_P2;Temp;Humidity;BMP_temperature;BMP_pressure;BME280_temperature;BME280_humidity;BME280_pressure;Samples;Min_cycle;Max_cycle;Signal;HPM_P1;HPM_P2
2021/04/11 00:01:47;;;;;;;9.48;5.93;;;;;;;-145.50;100.00;65435.88;5083281;28;20093;-71
2021/04/11 00:04:14;;;;;;;9.05;7.03;;;;;;;4.68;79.58;100802.59;5064852;28;20058;-71
2021/04/11 00:06:40;;;;;;;10.02;7.15;;;;;;;-71.40;100.00;66464.09;5064930;28;20052;-71
2021/04/11 00:09:06;;;;;;;9.68;7.00;;;;;;;-145.50;100.00;65435.88;5078126;28;20578;-72
2021/04/11 00:11:33;;;;;;;9.45;6.15;;;;;;;-145.50;100.00;65435.88;5082774;28;20612;-71
2021/04/11 00:13:59;;;;;;;9.05;5.20;;;;;;;-145.50;100.00;65435.88;5083208;28;20079;-74
2021/04/11 00:16:26;;;;;;;6.88;5.15;;;;;;;-145.50;100.00;65435.88;5043219;28;20055;-74
2021/04/11 00:18:53;;;;;;;7.70;5.82;;;;;;;-145.50;100.00;65435.88;5062891;28;20055;-74
2021/04/11 00:21:35;;;;;;;7.15;5.60;;;;;;;;;;5082371;28;20059;-74
2021/04/11 00:24:10;;;;;;;8.02;6.00;;;;;;;-145.50;100.00;65435.88;5082863;28;20901;-73
2021/04/11 00:26:44;;;;;;;6.47;5.15;;;;;;;-145.50;100.00;65435.88;5075955;28;20522;-74
2021/04/11 00:29:18;;;;;;;6.70;5.38;;;;;;;-145.50;100.00;65435.88;5079081;28;20048;-74
2021/04/11 00:31:51;;;;;;;7.28;5.10;;;;;;;-145.50;100.00;65435.88;5073812;28;20101;-74
2021/04/11 00:34:25;;;;;;;7.38;5.68;;;;;;;-145.50;100.00;65435.88;5088600;28;20044;-74
2021/04/11 00:36:59;;;;;;;8.70;5.40;;;;;;;4.67;100.00;100809.38;5103981;28;20512;-74
2021/04/11 00:39:25;;;;;;;8.02;5.80;;;;;;;-145.50;100.00;65435.88;5089701;28;20048;-74
2021/04/11 00:42:18;;;;;;;8.98;5.32;;;;;;;-145.50;80.15;65435.88;5052080;28;20074;-74
2021/04/11 00:44:51;;;;;;;8.25;5.93;;;;;;;-145.50;100.00;65435.88;5076463;28;20060;-74
2021/04/11 00:47:25;;;;;;;9.32;5.80;;;;;;;-145.50;100.00;65435.88;5076831;28;20048;-74
2021/04/11 00:50:03;;;;;;;9.38;5.97;;;;;;;-145.50;100.00;65435.88;5076372;28;20052;-74
2021/04/11 00:52:43;;;;;;;8.65;5.97;;;;;;;-145.50;60.79;65435.88;5085830;28;20052;-74
2021/04/11 00:55:24;;;;;;;7.43;4.97;;;;;;;-145.50;100.00;65435.88;5062131;28;20530;-74
2021/04/11 00:58:00;;;;;;;7.22;5.30;;;;;;;;;;5078412;28;20048;-74
2021/04/11 01:00:43;;;;;;;8.15;4.97;;;;;;;-145.50;100.00;65435.88;5062671;28;20048;-74
2021/04/11 01:03:21;;;;;;;9.45;5.65;;;;;;;-145.50;100.00;65435.88;5083198;28;20647;-74
2021/04/11 01:05:59;;;;;;;7.32;4.60;;;;;;;-145.50;100.00;65435.88;5081988;28;20048;-74
2021/04/11 01:08:49;;;;;;;8.43;5.80;;;;;;;-145.50;100.00;65435.88;5081273;28;20072;-74
2021/04/11 01:11:35;;;;;;;9.50;6.63;;;;;;;-145.50;100.00;65435.88;5065602;28;20048;-73
2021/04/11 01:14:20;;;;;;;11.00;6.63;;;;;;;-145.50;100.00;65435.88;5071917;28;20044;-75
2021/04/11 01:16:59;;;;;;;10.63;6.32;;;;;;;-145.50;100.00;65435.88;5082156;28;20052;-74
2021/04/11 01:19:37;;;;;;;8.63;6.13;;;;;;;-145.50;100.00;65435.88;5079227;28;20419;-75
2021/04/11 01:22:33;;;;;;;9.40;6.15;;;;;;;-145.50;100.00;65435.88;5097754;28;20796;-76
2021/04/11 01:25:20;;;;;;;8.25;6.13;;;;;;;-145.50;100.00;65435.88;5076640;28;20060;-75
2021/04/11 01:27:56;;;;;;;8.27;6.32;;;;;;;-145.50;100.00;65435.88;5056955;28;20417;-74
2021/04/11 01:30:36;;;;;;;13.60;7.38;;;;;;;-145.50;100.00;78463.81;5075359;28;20056;-75
2021/04/11 01:33:15;;;;;;;10.55;7.15;;;;;;;-145.50;100.00;65435.88;5092451;28;20048;-75
2021/04/11 01:35:50;;;;;;;9.02;6.47;;;;;;;-145.50;100.00;65435.88;5076042;28;20141;-75
2021/04/11 01:38:39;;;;;;;10.65;6.82;;;;;;;-145.50;100.00;65435.88;5093493;28;20079;-75
2021/04/11 01:41:44;;;;;;;9.80;6.20;;;;;;;-145.50;100.00;65435.88;5087902;28;20083;-74
2021/04/11 01:44:31;;;;;;;8.93;7.00;;;;;;;-145.50;100.00;65435.88;5076957;28;20054;-75
2021/04/11 01:47:12;;;;;;;10.52;7.40;;;;;;;4.67;80.15;100805.31;5068234;28;20144;-75
2021/04/11 01:49:47;;;;;;;10.70;6.75;;;;;;;-145.50;100.00;65435.88;5080362;28;20056;-74
2021/04/11 01:52:38;;;;;;;10.70;6.60;;;;;;;-145.50;100.00;65435.88;5072634;28;20052;-74
2021/04/11 01:55:27;;;;;;;8.80;6.57;;;;;;;-145.50;100.00;65435.88;5075729;28;20729;-74
2021/04/11 01:58:15;;;;;;;10.20;6.30;;;;;;;-145.50;100.00;65435.88;5079884;28;20475;-74
2021/04/11 02:01:03;;;;;;;7.88;5.85;;;;;;;-145.50;100.00;65435.88;5066032;28;20915;-74
2021/04/11 02:03:40;;;;;;;8.40;6.05;;;;;;;-145.50;100.00;65435.88;5061411;28;20867;-74
2021/04/11 02:06:15;;;;;;;9.27;6.10;;;;;;;4.67;80.15;100805.31;5063694;28;20074;-74
2021/04/11 02:08:59;;;;;;;9.00;6.05;;;;;;;4.67;100.00;83935.72;5070907;28;20102;-75
2021/04/11 02:11:35;;;;;;;10.60;5.53;;;;;;;-145.50;100.00;65435.88;5081400;28;20055;-75
2021/04/11 02:14:10;;;;;;;10.68;6.10;;;;;;;-98.29;80.15;100805.31;5064496;28;20577;-73
2021/04/11 02:16:47;;;;;;;8.07;5.57;;;;;;;4.67;80.15;100805.31;5101699;28;20146;-73
2021/04/11 02:19:36;;;;;;;13.02;5.80;;;;;;;-145.50;100.00;65435.88;5072760;28;20095;-73
2021/04/11 02:22:24;;;;;;;9.57;5.57;;;;;;;-145.50;80.26;78463.47;5066256;28;20056;-73
2021/04/11 02:24:59;;;;;;;7.10;5.20;;;;;;;-145.50;100.00;65435.88;5049655;28;20057;-74
2021/04/11 02:27:35;;;;;;;7.45;5.25;;;;;;;-145.50;100.00;65435.88;5074840;28;20472;-73
2021/04/11 02:30:17;;;;;;;7.53;5.57;;;;;;;-145.50;100.00;65435.88;5064065;28;20128;-73
2021/04/11 02:33:04;;;;;;;9.07;5.13;;;;;;;-145.50;100.00;65435.88;5075725;28;20064;-73
2021/04/11 02:35:52;;;;;;;7.38;5.05;;;;;;;-145.50;100.00;65435.88;5064267;28;20502;-73
2021/04/11 02:38:28;;;;;;;8.38;5.32;;;;;;;4.67;80.15;100805.31;5051635;28;20113;-73
2021/04/11 02:41:03;;;;;;;6.45;4.95;;;;;;;4.67;100.00;83937.09;5063270;28;20117;-72
2021/04/11 02:43:49;;;;;;;7.28;5.53;;;;;;;-145.50;100.00;65435.88;5074461;28;20048;-72
2021/04/11 02:46:38;;;;;;;10.07;6.80;;;;;;;-145.50;100.00;65435.88;5078799;28;20056;-72
2021/04/11 02:49:25;;;;;;;10.07;6.13;;;;;;;-145.50;100.00;65435.88;5071257;28;20052;-72
2021/04/11 02:52:30;;;;;;;7.88;5.45;;;;;;;-145.50;80.15;65435.88;5076494;28;20064;-73
2021/04/11 02:55:04;;;;;;;7.15;5.60;;;;;;;4.67;80.15;100805.31;5066315;28;20131;-73
2021/04/11 02:57:36;;;;;;;9.98;6.00;;;;;;;4.67;80.15;100805.31;5079395;28;20048;-73
2021/04/11 03:00:14;;;;;;;8.15;5.85;;;;;;;4.67;80.15;100805.31;5056872;28;20129;-73
2021/04/11 03:02:41;;;;;;;9.32;5.93;;;;;;;-145.50;100.00;65435.88;5078942;28;20056;-73
2021/04/11 03:05:15;;;;;;;8.23;6.25;;;;;;;4.67;80.15;100805.31;5078887;28;20048;-73
2021/04/11 03:07:48;;;;;;;8.25;5.68;;;;;;;-145.50;100.00;65435.88;5082771;28;20056;-73
2021/04/11 03:10:42;;;;;;;7.53;5.35;;;;;;;-145.50;2.43;65435.88;5084492;28;20052;-73
2021/04/11 03:13:29;;;;;;;8.45;5.35;;;;;;;-145.50;100.00;65435.88;5072264;28;20105;-73
2021/04/11 03:16:13;;;;;;;8.85;5.47;;;;;;;-145.50;100.00;64595.22;5083265;28;20795;-73
2021/04/11 03:18:43;;;;;;;7.38;5.05;;;;;;;-145.50;100.00;65435.88;5068232;28;20055;-73
2021/04/11 03:21:23;;;;;;;8.18;4.53;;;;;;;-145.50;100.00;65435.88;5085000;28;20059;-73
2021/04/11 03:24:10;;;;;;;5.90;4.00;;;;;;;-145.50;100.00;65435.88;5081232;28;20161;-73
2021/04/11 03:27:04;;;;;;;6.65;3.90;;;;;;;-145.50;100.00;65435.88;5083350;28;20060;-73
2021/04/11 03:29:49;;;;;;;7.63;3.42;;;;;;;4.67;80.15;100805.31;5065934;28;20548;-73
2021/04/11 03:32:42;;;;;;;4.22;3.35;;;;;;;4.67;80.15;100805.31;5091999;28;20048;-73
2021/04/11 03:35:17;;;;;;;5.45;2.80;;;;;;;-145.50;100.00;65435.88;5077955;28;20043;-73
2021/04/11 03:38:06;;;;;;;4.45;3.05;;;;;;;-145.50;100.00;65435.88;5064497;28;20149;-73
2021/04/11 03:40:50;;;;;;;4.15;2.90;;;;;;;-145.50;80.15;100805.31;5073684;28;20048;-73
2021/04/11 03:43:24;;;;;;;3.47;2.30;;;;;;;-145.50;100.00;65435.88;5082653;28;20059;-73
2021/04/11 03:46:09;;;;;;;3.63;2.50;;;;;;;-145.50;80.15;100805.31;5086440;28;20048;-73
2021/04/11 03:49:07;;;;;;;4.82;2.75;;;;;;;-145.50;100.00;65435.88;5079196;28;20059;-73
2021/04/11 03:51:59;;;;;;;2.97;2.20;;;;;;;-145.50;100.00;65435.88;5078638;28;20059;-74
2021/04/11 03:54:47;;;;;;;2.50;2.05;;;;;;;-145.50;100.00;65435.88;5088706;28;20055;-73
2021/04/11 03:57:55;;;;;;;2.35;2.15;;;;;;;-145.50;100.00;65435.88;5079792;28;20052;-73
2021/04/11 04:00:47;;;;;;;3.60;2.55;;;;;;;-145.50;100.00;65435.88;5062172;28;20101;-73
2021/04/11 04:03:25;;;;;;;2.53;2.10;;;;;;;4.67;80.15;59737.06;5064532;28;20129;-73
2021/04/11 04:06:01;;;;;;;3.05;2.00;;;;;;;-71.24;100.00;127310.50;5073395;28;20109;-73
2021/04/11 04:08:36;;;;;;;2.35;1.95;;;;;;;-145.50;80.15;100805.31;5077315;28;20048;-73
2021/04/11 04:11:41;;;;;;;2.65;2.00;;;;;;;-145.50;100.00;65435.88;5071499;28;20052;-73
2021/04/11 04:14:44;;;;;;;2.40;2.00;;;;;;;-145.50;100.00;65435.88;5072063;28;20055;-73
2021/04/11 04:17:33;;;;;;;3.33;1.83;;;;;;;-145.50;100.00;65435.88;5082729;28;20087;-73
2021/04/11 04:20:32;;;;;;;3.58;2.35;;;;;;;-145.50;100.00;65435.88;5077508;28;20777;-73
2021/04/11 04:23:16;;;;;;;3.05;2.28;;;;;;;-145.50;100.00;65435.88;5070788;28;20052;-73
2021/04/11 04:26:08;;;;;;;3.10;2.00;;;;;;;-145.50;100.00;65435.88;5077408;28;20832;-73
2021/04/11 04:29:08;;;;;;;3.72;2.47;;;;;;;-145.50;100.00;65435.88;5076997;28;20063;-73
2021/04/11 04:32:15;;;;;;;3.28;2.60;;;;;;;-145.50;100.00;65435.88;5073294;28;20161;-73
2021/04/11 04:35:00;;;;;;;5.22;2.53;;;;;;;-145.50;100.00;65435.88;5082149;28;20054;-73
2021/04/11 04:37:53;;;;;;;2.47;2.00;;;;;;;-145.50;100.00;65435.88;5064440;28;20075;-73
2021/04/11 04:40:47;;;;;;;2.67;2.22;;;;;;;-145.50;100.00;65435.88;5083775;28;20083;-73
2021/04/11 04:43:45;;;;;;;2.83;2.05;;;;;;;-108.58;100.00;65435.88;5071346;28;20071;-74
2021/04/11 04:46:25;;;;;;;3.75;2.70;;;;;;;-145.50;100.00;65435.88;5078624;28;20483;-73
2021/04/11 04:49:29;;;;;;;2.65;2.35;;;;;;;-145.50;100.00;65435.88;5076669;28;20055;-72
2021/04/11 04:52:37;;;;;;;2.95;2.17;;;;;;;-145.50;100.00;65435.88;5083017;28;20055;-73
2021/04/11 04:55:25;;;;;;;2.90;2.47;;;;;;;-145.50;100.00;65435.88;5066952;28;20256;-72
2021/04/11 04:58:12;;;;;;;3.38;2.25;;;;;;;-145.50;100.00;65435.88;5066129;28;20073;-72
2021/04/11 05:00:47;;;;;;;3.70;2.72;;;;;;;-145.50;100.00;65435.88;5085940;28;20044;-73
2021/04/11 05:03:20;;;;;;;3.97;2.50;;;;;;;-145.50;100.00;65435.88;5087069;28;20067;-72
2021/04/11 05:06:18;;;;;;;3.53;2.08;;;;;;;4.67;100.00;69627.41;5073789;28;20078;-72
2021/04/11 05:09:13;;;;;;;4.63;2.43;;;;;;;-145.50;100.00;65435.88;5080605;28;20822;-72
2021/04/11 05:12:02;;;;;;;4.07;2.70;;;;;;;190.73;100.00;65435.88;5075260;28;20113;-73
2021/04/11 05:14:54;;;;;;;4.28;2.47;;;;;;;-145.50;100.00;65435.88;5078623;28;20872;-74
2021/04/11 05:17:56;;;;;;;2.80;2.38;;;;;;;-145.50;100.00;65435.88;5057251;28;20102;-74
2021/04/11 05:20:55;;;;;;;3.20;2.28;;;;;;;-145.50;100.00;65435.88;5096696;28;20083;-73
2021/04/11 05:23:54;;;;;;;4.53;2.47;;;;;;;-145.50;60.79;65435.88;5072401;28;20560;-74
2021/04/11 05:27:00;;;;;;;4.45;2.30;;;;;;;-145.50;100.00;65435.88;5045044;28;20044;-74
2021/04/11 05:30:05;;;;;;;4.80;2.33;;;;;;;-145.50;80.14;100805.31;5075565;28;20052;-74
2021/04/11 05:32:40;;;;;;;4.97;2.50;;;;;;;-145.50;100.00;65435.88;5071619;28;20113;-73
2021/04/11 05:35:13;;;;;;;5.75;2.00;;;;;;;-145.50;100.00;65435.88;5074208;28;20065;-74
2021/04/11 05:38:19;;;;;;;4.28;2.55;;;;;;;-145.50;100.00;65435.88;5069508;28;20100;-74
2021/04/11 05:41:12;;;;;;;3.25;2.50;;;;;;;-145.50;100.00;65435.88;5056735;28;20055;-74
2021/04/11 05:44:17;;;;;;;2.47;1.98;;;;;;;-145.50;100.00;65435.88;5081093;28;20744;-74
2021/04/11 05:47:19;;;;;;;3.33;2.13;;;;;;;-145.50;100.00;65435.88;5061492;28;20052;-74
2021/04/11 05:50:05;;;;;;;2.45;1.98;;;;;;;-145.50;100.00;65435.88;5082396;28;20129;-74
2021/04/11 05:53:01;;;;;;;3.13;2.20;;;;;;;-145.50;100.00;65435.88;5069561;28;20567;-73
2021/04/11 05:55:56;;;;;;;2.55;1.83;;;;;;;-145.50;100.00;65435.88;5083441;28;20679;-74
2021/04/11 05:58:38;;;;;;;4.35;1.85;;;;;;;4.67;100.00;100805.31;5083760;28;20128;-74
2021/04/11 06:01:29;;;;;;;2.60;1.90;;;;;;;-145.50;100.00;65435.88;5072950;28;20063;-74
2021/04/11 06:04:23;;;;;;;3.17;2.25;;;;;;;4.67;0.00;100805.50;5056909;28;20047;-73
2021/04/11 06:07:14;;;;;;;2.22;1.63;;;;;;;-145.50;100.00;65435.88;5088811;28;20066;-74
2021/04/11 06:10:00;;;;;;;3.38;1.92;;;;;;;-145.50;80.15;100805.31;5086165;28;20079;-74
2021/04/11 06:13:15;;;;;;;3.30;1.90;;;;;;;-145.50;80.15;78463.47;5080125;28;20094;-73
2021/04/11 06:15:59;;;;;;;2.00;1.80;;;;;;;4.67;80.15;100805.31;5093344;28;20166;-74
2021/04/11 06:18:34;;;;;;;2.53;1.95;;;;;;;4.67;80.15;100805.31;5082057;28;20100;-74
2021/04/11 06:21:16;;;;;;;4.72;2.28;;;;;;;-145.41;100.00;119531.66;5080755;28;20393;-74
2021/04/11 06:24:22;;;;;;;4.55;2.60;;;;;;;-145.50;100.00;65435.88;5080837;28;20052;-74
2021/04/11 06:27:03;;;;;;;2.30;1.83;;;;;;;-145.50;100.00;65435.88;5053130;28;20056;-74
2021/04/11 06:29:53;;;;;;;2.63;1.80;;;;;;;4.67;80.15;100805.31;5081589;28;20124;-74
2021/04/11 06:32:34;;;;;;;3.95;1.92;;;;;;;4.67;80.15;100805.31;5061526;28;20097;-74
2021/04/11 06:35:12;;;;;;;2.50;1.77;;;;;;;4.67;80.13;100805.31;5074951;28;20048;-73
2021/04/11 06:37:46;;;;;;;3.47;1.75;;;;;;;4.67;80.15;100805.31;5074891;28;20048;-74
2021/04/11 06:40:42;;;;;;;3.55;2.00;;;;;;;4.65;100.00;65435.88;5083421;28;20051;-73
2021/04/11 06:43:41;;;;;;;2.85;1.80;;;;;;;-145.50;100.00;65435.88;5079346;28;20129;-74
2021/04/11 06:46:34;;;;;;;2.10;1.52;;;;;;;-145.50;100.00;65435.88;5055934;28;20056;-74
2021/04/11 06:49:42;;;;;;;2.00;1.50;;;;;;;-145.50;100.00;65435.88;5055643;28;20131;-74
2021/04/11 06:52:35;;;;;;;3.72;1.67;;;;;;;-145.50;0.00;119702.53;5085041;28;20036;-74
2021/04/11 06:55:33;;;;;;;3.03;1.55;;;;;;;4.74;77.02;101077.66;5073713;28;20469;-74
2021/04/11 06:58:11;;;;;;;3.35;1.40;;;;;;;4.77;77.13;101070.59;5096593;28;20154;-74
2021/04/11 07:01:18;;;;;;;3.45;1.30;;;;;;;4.83;77.63;101070.16;5052865;28;20129;-74
2021/04/11 07:04:21;;;;;;;3.53;1.40;;;;;;;4.89;77.43;101075.78;5087360;28;20051;-73
2021/04/11 07:06:54;;;;;;;3.00;1.67;;;;;;;4.94;76.41;101078.09;5086880;28;20056;-73
2021/04/11 07:09:42;;;;;;;3.00;1.55;;;;;;;4.94;75.98;101084.09;5089153;28;20083;-74
2021/04/11 07:12:17;;;;;;;2.95;1.38;;;;;;;4.99;75.95;101094.19;5078560;28;20048;-75
2021/04/11 07:15:15;;;;;;;2.47;1.52;;;;;;;5.01;76.22;101102.72;5044918;28;20052;-73
2021/04/11 07:18:06;;;;;;;3.97;1.48;;;;;;;5.00;75.73;101095.88;5077111;28;20119;-73
2021/04/11 07:21:03;;;;;;;2.47;1.50;;;;;;;5.05;75.42;101095.53;5060752;28;20057;-73
2021/04/11 07:23:42;;;;;;;1.95;1.20;;;;;;;5.11;75.65;101101.16;5073687;28;20577;-73
2021/04/11 07:26:08;;;;;;;;;;;;;;;5.18;75.12;101109.38;5086575;28;20040;-73
2021/04/11 07:28:57;;;;;;;2.08;1.10;;;;;;;5.23;75.46;101106.47;5077345;28;19989;-73
2021/04/11 07:31:33;;;;;;;1.98;1.27;;;;;;;5.28;74.11;101101.78;5062357;28;20070;-73
2021/04/11 07:34:24;;;;;;;5.03;1.83;;;;;;;5.40;74.92;101105.31;5071631;28;20083;-73
2021/04/11 07:36:53;;;;;;;3.25;1.20;;;;;;;5.48;74.35;101103.81;5081814;28;20052;-72
2021/04/11 07:40:03;;;;;;;3.22;1.40;;;;;;;5.53;73.77;101117.38;5050649;28;20105;-70
2021/04/11 07:42:37;;;;;;;4.35;1.58;;;;;;;5.66;74.01;101126.91;5006931;28;20605;-71
2021/04/11 07:45:15;;;;;;;2.80;1.40;;;;;;;5.64;73.37;101128.78;5082214;28;20047;-72
2021/04/11 07:48:02;;;;;;;2.40;1.20;;;;;;;5.64;73.61;101139.19;5083929;28;20063;-72
2021/04/11 07:51:07;;;;;;;2.85;1.45;;;;;;;5.60;74.01;101146.38;5059479;28;20801;-71
2021/04/11 07:54:10;;;;;;;3.83;1.77;;;;;;;5.51;73.33;101147.03;5078202;28;20141;-72
2021/04/11 07:56:59;;;;;;;3.92;1.55;;;;;;;5.38;73.03;101144.44;5079955;28;20055;-72
2021/04/11 07:59:32;;;;;;;5.75;1.98;;;;;;;5.33;73.87;101159.50;5039641;28;20048;-72
2021/04/11 08:02:19;;;;;;;6.47;1.95;;;;;;;5.24;73.85;101170.56;5079336;28;20064;-74
2021/04/11 08:05:13;;;;;;;6.80;2.55;;;;;;;5.14;73.39;101160.75;5083971;28;20105;-72
2021/04/11 08:07:58;;;;;;;5.65;1.92;;;;;;;5.19;74.26;101155.25;5065589;28;20060;-72
2021/04/11 08:10:55;;;;;;;6.43;2.72;;;;;;;5.20;74.45;101161.31;5062854;28;20109;-71
2021/04/11 08:13:39;;;;;;;6.18;2.20;;;;;;;5.24;74.72;101162.75;5073409;28;20048;-71
2021/04/11 08:16:43;;;;;;;4.07;1.85;;;;;;;5.27;74.50;101160.78;5070187;28;20052;-69
2021/04/11 08:19:21;;;;;;;7.38;1.92;;;;;;;5.31;74.86;101167.44;5075812;28;20048;-71
2021/04/11 08:21:58;;;;;;;7.07;2.10;;;;;;;5.30;74.29;101176.16;5087796;28;20048;-72
2021/04/11 08:24:39;;;;;;;6.10;2.35;;;;;;;5.30;74.24;101173.56;5085823;28;20852;-71
2021/04/11 08:27:14;;;;;;;5.20;2.35;;;;;;;5.20;73.50;101187.31;5079490;28;20097;-72
2021/04/11 08:30:06;;;;;;;3.38;1.95;;;;;;;5.21;74.01;101196.75;5082450;28;20470;-72
2021/04/11 08:33:06;;;;;;;4.35;1.77;;;;;;;5.20;74.34;101208.94;5082058;28;20495;-72
2021/04/11 08:36:01;;;;;;;4.43;1.75;;;;;;;5.24;74.37;101196.56;5061791;28;20052;-71
2021/04/11 08:38:46;;;;;;;6.75;1.92;;;;;;;5.29;74.73;101199.69;5079430;28;20101;-71
2021/04/11 08:41:33;;;;;;;3.22;2.05;;;;;;;5.41;74.44;101211.88;5077952;28;20059;-71
2021/04/11 08:44:13;;;;;;;3.88;1.90;;;;;;;5.53;74.24;101212.81;5073130;28;20162;-72
2021/04/11 08:46:56;;;;;;;3.30;1.60;;;;;;;5.64;73.54;101215.50;5087495;28;20063;-72
2021/04/11 08:49:35;;;;;;;5.88;1.85;;;;;;;5.75;73.32;101213.00;5058471;28;20780;-73
2021/04/11 08:52:13;;;;;;;5.22;1.75;;;;;;;5.71;72.00;101224.56;5078672;28;20062;-73
2021/04/11 08:55:05;;;;;;;3.58;1.77;;;;;;;5.82;72.71;101223.84;5076388;28;20064;-74
2021/04/11 08:57:52;;;;;;;5.65;1.83;;;;;;;6.01;73.07;101233.84;5096178;28;20481;-72
2021/04/11 09:00:23;;;;;;;3.97;1.77;;;;;;;6.12;72.79;101236.53;5082152;28;20046;-72
2021/04/11 09:03:11;;;;;;;4.88;1.80;;;;;;;6.25;72.05;101238.25;5083248;28;20059;-73
2021/04/11 09:05:53;;;;;;;3.35;1.50;;;;;;;6.32;71.22;101237.72;5081930;28;20074;-73
2021/04/11 09:08:28;;;;;;;4.18;1.50;;;;;;;6.42;71.28;101232.69;5083955;28;20055;-72
2021/04/11 09:11:13;;;;;;;5.65;1.55;;;;;;;6.38;69.94;101241.69;5075928;28;20055;-71
2021/04/11 09:13:57;;;;;;;3.83;1.50;;;;;;;6.35;70.43;101239.31;5081507;28;20056;-71
2021/04/11 09:16:26;;;;;;;4.63;1.60;;;;;;;6.38;71.94;101248.66;5075009;28;20750;-71
2021/04/11 09:19:05;;;;;;;2.50;1.60;;;;;;;6.17;69.53;101246.63;5081327;28;20080;-72
2021/04/11 09:21:55;;;;;;;4.03;1.63;;;;;;;6.25;70.97;101246.94;5076833;28;20109;-72
2021/04/11 09:24:44;;;;;;;6.53;1.60;;;;;;;6.26;69.74;101256.41;5095440;28;20172;-72
2021/04/11 09:27:32;;;;;;;3.60;1.27;;;;;;;6.34;70.30;101256.69;5091238;28;20797;-72
2021/04/11 09:30:39;;;;;;;3.07;1.20;;;;;;;6.57;69.89;101256.84;5071494;28;20052;-71
2021/04/11 09:33:17;;;;;;;5.22;1.27;;;;;;;6.60;69.68;101256.59;4969428;28;20298;-71
2021/04/11 09:36:05;;;;;;;3.90;1.65;;;;;;;6.79;71.26;101255.31;5072053;28;20169;-72
2021/04/11 09:39:02;;;;;;;4.85;1.45;;;;;;;6.75;68.63;101266.91;5075735;28;20741;-73
2021/04/11 09:41:31;;;;;;;4.10;1.55;;;;;;;6.89;70.89;101270.16;5067235;28;20048;-71
2021/04/11 09:44:05;;;;;;;3.33;1.20;;;;;;;6.96;70.66;101274.91;5080724;28;20051;-72
2021/04/11 09:46:37;;;;;;;3.17;1.20;;;;;;;6.97;69.57;101279.19;5081423;28;20495;-72
2021/04/11 09:49:24;;;;;;;1.67;1.10;;;;;;;7.01;68.41;101280.66;5079828;28;20548;-72
2021/04/11 09:52:09;;;;;;;3.55;1.30;;;;;;;6.96;68.12;101287.97;5082112;28;20124;-72
2021/04/11 09:54:47;;;;;;;3.65;1.00;;;;;;;6.97;68.22;101287.03;5084935;28;20051;-72
2021/04/11 09:57:39;;;;;;;4.05;1.65;;;;;;;6.92;67.22;101279.56;5082818;28;20059;-72
2021/04/11 10:00:15;;;;;;;4.22;1.48;;;;;;;7.06;67.61;101276.75;5080711;28;20635;-72
2021/04/11 10:03:02;;;;;;;1.92;0.98;;;;;;;7.07;68.04;101273.19;5073102;28;21107;-72
2021/04/11 10:05:45;;;;;;;1.73;0.73;;;;;;;7.17;67.36;101272.53;5083464;28;20071;-72
2021/04/11 10:08:35;;;;;;;4.50;1.33;;;;;;;7.18;67.35;101282.03;5077406;28;20117;-72
2021/04/11 10:11:16;;;;;;;1.92;1.00;;;;;;;7.10;66.74;101270.38;5082885;28;20052;-72
2021/04/11 10:13:59;;;;;;;2.55;1.08;;;;;;;7.03;65.75;101291.78;5072190;28;20773;-72
2021/04/11 10:16:31;;;;;;;4.88;1.15;;;;;;;7.12;66.66;101299.78;5084603;28;20055;-73
2021/04/11 10:19:09;;;;;;;4.22;1.00;;;;;;;7.20;66.99;101301.00;5056359;28;20052;-73
2021/04/11 10:22:09;;;;;;;1.02;0.82;;;;;;;7.21;66.80;101303.47;5070516;28;20060;-72
2021/04/11 10:24:43;;;;;;;3.13;0.90;;;;;;;7.14;65.95;101312.72;5066327;28;20626;-71
2021/04/11 10:27:27;;;;;;;2.70;0.70;;;;;;;7.14;66.70;101304.91;5081564;28;20056;-71
2021/04/11 10:29:56;;;;;;;1.05;0.70;;;;;;;7.10;66.23;101304.28;5065707;28;20047;-72
2021/04/11 10:32:25;;;;;;;;;;;;;;;7.16;66.77;101313.44;5085644;28;20051;-72
2021/04/11 10:34:58;;;;;;;3.15;1.23;;;;;;;7.11;66.75;101325.97;5101780;28;19930;-72
2021/04/11 10:37:35;;;;;;;5.57;1.23;;;;;;;6.98;68.49;101333.88;5093974;28;20479;-71
2021/04/11 10:40:07;;;;;;;5.82;1.35;;;;;;;6.96;70.44;101333.16;5088310;28;20102;-73
2021/04/11 10:42:59;;;;;;;1.23;0.93;;;;;;;6.85;69.60;101344.34;5062570;28;20835;-72
2021/04/11 10:46:02;;;;;;;1.90;1.02;;;;;;;6.82;70.58;101344.56;5098176;28;20475;-74
2021/04/11 10:48:30;;;;;;;1.48;0.90;;;;;;;6.96;71.86;101350.56;5065876;28;20480;-73
2021/04/11 10:51:17;;;;;;;3.42;1.40;;;;;;;7.01;71.03;101349.28;5085952;28;20732;-73
2021/04/11 10:54:02;;;;;;;3.70;1.70;;;;;;;7.28;70.15;101343.84;5080730;28;20051;-73
2021/04/11 10:56:40;;;;;;;5.07;1.40;;;;;;;7.42;70.86;101339.41;5089006;28;20047;-73
2021/04/11 10:59:15;;;;;;;5.60;1.25;;;;;;;7.59;70.24;101354.66;5087156;28;20043;-74
2021/04/11 11:01:54;;;;;;;4.07;1.25;;;;;;;7.79;69.67;101354.94;5098918;28;20071;-73
2021/04/11 11:04:20;;;;;;;3.75;1.50;;;;;;;7.80;67.83;101375.72;5089689;28;20039;-74
2021/04/11 11:07:21;;;;;;;4.32;1.30;;;;;;;7.86;66.79;101375.28;5098468;28;20495;-73
2021/04/11 11:10:02;;;;;;;3.47;1.10;;;;;;;7.90;67.68;101368.88;5028010;28;20055;-73
2021/04/11 11:12:50;;;;;;;6.45;1.85;;;;;;;7.98;65.91;101373.50;5063320;28;20052;-72
2021/04/11 11:15:23;;;;;;;5.63;1.00;;;;;;;7.99;66.21;101362.09;5095396;28;20048;-73
2021/04/11 11:18:10;;;;;;;9.07;1.55;;;;;;;7.93;65.88;101359.94;5085073;28;20082;-74
2021/04/11 11:20:45;;;;;;;3.63;1.38;;;;;;;7.70;63.38;101372.13;5083529;28;20523;-75
2021/04/11 11:23:22;;;;;;;8.55;1.10;;;;;;;7.72;65.70;101373.69;5080904;28;20384;-73
2021/04/11 11:25:55;;;;;;;3.28;1.00;;;;;;;7.82;66.64;101375.59;5063911;28;20082;-73
2021/04/11 11:28:40;;;;;;;3.20;1.10;;;;;;;7.83;65.40;101375.47;5079372;28;20431;-73
2021/04/11 11:31:11;;;;;;;3.50;1.23;;;;;;;7.90;65.42;101374.09;5084976;28;20125;-74
2021/04/11 11:33:47;;;;;;;5.25;1.30;;;;;;;7.95;63.63;101375.50;5095941;28;20083;-74
2021/04/11 11:36:30;;;;;;;3.63;0.90;;;;;;;8.30;65.39;101375.44;5084925;28;20076;-74
2021/04/11 11:39:16;;;;;;;4.18;1.23;;;;;;;8.30;63.85;101375.44;5079136;28;20531;-73
2021/04/11 11:41:48;;;;;;;5.50;1.45;;;;;;;8.26;63.14;101374.84;5092418;28;20163;-74
2021/04/11 11:44:22;;;;;;;4.72;1.35;;;;;;;8.24;62.41;101378.53;5067003;28;20113;-74
2021/04/11 11:47:15;;;;;;;2.25;1.00;;;;;;;8.29;62.78;101381.59;5078488;28;20059;-74
2021/04/11 11:49:55;;;;;;;3.92;1.23;;;;;;;8.34;62.58;101389.94;5084064;28;20682;-73
2021/04/11 11:52:28;;;;;;;5.18;1.10;;;;;;;8.25;62.81;101391.50;5078049;28;20083;-74
2021/04/11 11:55:16;;;;;;;1.83;0.98;;;;;;;8.27;62.07;101397.44;5068559;28;20566;-74
2021/04/11 11:58:12;;;;;;;4.35;1.35;;;;;;;8.35;61.60;101402.06;5093841;28;20083;-75
2021/04/11 12:00:43;;;;;;;3.95;1.00;;;;;;;8.51;62.88;101405.19;5096799;28;20101;-74
2021/04/11 12:03:25;;;;;;;6.07;1.70;;;;;;;8.44;61.21;101404.00;5088466;27;20502;-74
2021/04/11 12:06:04;;;;;;;5.00;1.55;;;;;;;8.23;60.29;101403.84;5089246;28;20067;-74
2021/04/11 12:09:05;;;;;;;4.03;1.25;;;;;;;8.35;61.69;101414.28;5075823;28;20079;-73
2021/04/11 12:11:31;;;;;;;4.40;1.23;;;;;;;8.34;61.79;101416.06;5084513;28;20101;-72
2021/04/11 12:14:10;;;;;;;6.28;1.20;;;;;;;8.40;61.52;101414.78;5092232;28;20581;-73
2021/04/11 12:16:46;;;;;;;3.13;1.15;;;;;;;8.41;61.38;101417.31;5094312;28;20078;-72
2021/04/11 12:19:19;;;;;;;4.72;1.13;;;;;;;8.52;61.52;101421.69;5090026;28;20053;-73
2021/04/11 12:21:52;;;;;;;3.25;1.10;;;;;;;8.37;61.00;101421.09;5076867;28;20770;-72
2021/04/11 12:24:24;;;;;;;2.28;1.00;;;;;;;8.47;60.91;101422.06;5076879;28;20047;-72
2021/04/11 12:26:52;;;;;;;4.20;1.10;;;;;;;8.36;59.95;101418.59;5070988;28;20056;-73
2021/04/11 12:29:23;;;;;;;3.50;1.05;;;;;;;8.37;60.68;101428.06;5089929;28;20048;-72
2021/04/11 12:32:01;;;;;;;3.70;1.10;;;;;;;8.20;59.53;101445.06;5094408;28;20590;-71
2021/04/11 12:34:51;;;;;;;3.97;1.20;;;;;;;8.22;61.08;101456.22;5064491;28;20063;-72
2021/04/11 12:37:42;;;;;;;3.25;1.52;;;;;;;8.03;60.29;101452.34;5043554;28;20059;-71
2021/04/11 12:40:28;;;;;;;5.53;1.73;;;;;;;8.06;61.73;101456.53;5090782;28;20201;-73
2021/04/11 12:43:09;;;;;;;3.53;1.63;;;;;;;8.00;61.96;101468.28;5089232;28;20109;-71